logo
Search for airport 
image banner adimage banner adimage banner ad
image banner ad

YSRL - Sorell

Located in Sorell, Australia

ICAO - , IATA -

Data provided by Airmate  

General information

Coordinates: S42°47'2" E147°33'36"
Elevation is 55 feet MSL.
Magnetic variation is 15° East
View others Airports in Tasmania

Operational data

Special qualification required
Current time UTC:
Current local time:
Weather at : YMHB - Hobart ( 7 km )
METAR: YMHB 140500Z 27012KT 9999 FEW048 22/10 Q1016
TAF: TAF AMD YMHB 140506Z 1406/1506 29012KT 9999 SCT045 FM141300 34008KT 9999 SCT040 FM150000 28010KT 9999 SCT040 FM150400 21012KT 9999 SCT040
View NOTAMs / SUP AIP / TFR affecting this airport [VIEW]
Communications frequencies: [VIEW]

Runways:

Airport contact information

Address: Sorell Australia

Satellite view of YSRL